sensor_id;sensor_type;location;lat;lon;timestamp;P1;durP1;ratioP1;P2;durP2;ratioP2
33254;SDS011;19623;52.482;9.762;2022-08-03T00:00:39;431.45;;;398.50;;
33254;SDS011;19623;52.482;9.762;2022-08-03T00:03:05;361.17;;;333.30;;
33254;SDS011;19623;52.482;9.762;2022-08-03T00:05:31;214.90;;;198.32;;
33254;SDS011;19623;52.482;9.762;2022-08-03T00:07:57;23.98;;;22.02;;
33254;SDS011;19623;52.482;9.762;2022-08-03T00:10:24;261.13;;;243.15;;
33254;SDS011;19623;52.482;9.762;2022-08-03T00:12:50;140.80;;;128.40;;
33254;SDS011;19623;52.482;9.762;2022-08-03T00:15:16;124.20;;;114.40;;
33254;SDS011;19623;52.482;9.762;2022-08-03T00:17:42;102.47;;;94.30;;
33254;SDS011;19623;52.482;9.762;2022-08-03T00:20:08;111.15;;;102.32;;
33254;SDS011;19623;52.482;9.762;2022-08-03T00:22:34;110.30;;;101.40;;
33254;SDS011;19623;52.482;9.762;2022-08-03T00:25:00;213.98;;;197.02;;
33254;SDS011;19623;52.482;9.762;2022-08-03T00:27:25;144.45;;;132.77;;
33254;SDS011;19623;52.482;9.762;2022-08-03T00:29:52;75.07;;;68.90;;
33254;SDS011;19623;52.482;9.762;2022-08-03T00:32:18;68.70;;;63.10;;
33254;SDS011;19623;52.482;9.762;2022-08-03T00:34:43;75.13;;;68.63;;
33254;SDS011;19623;52.482;9.762;2022-08-03T00:37:09;31.10;;;27.85;;
33254;SDS011;19623;52.482;9.762;2022-08-03T00:39:34;30.55;;;27.88;;
33254;SDS011;19623;52.482;9.762;2022-08-03T00:42:03;22.23;;;19.30;;
33254;SDS011;19623;52.482;9.762;2022-08-03T00:44:29;21.08;;;19.13;;
33254;SDS011;19623;52.482;9.762;2022-08-03T00:46:55;218.50;;;200.63;;
33254;SDS011;19623;52.482;9.762;2022-08-03T00:49:21;147.93;;;136.57;;
33254;SDS011;19623;52.482;9.762;2022-08-03T00:51:47;147.63;;;135.52;;
33254;SDS011;19623;52.482;9.762;2022-08-03T00:54:13;104.40;;;95.55;;
33254;SDS011;19623;52.482;9.762;2022-08-03T00:56:39;109.57;;;101.20;;
33254;SDS011;19623;52.482;9.762;2022-08-03T00:59:06;87.60;;;80.43;;
33254;SDS011;19623;52.482;9.762;2022-08-03T01:01:33;92.35;;;84.90;;
33254;SDS011;19623;52.482;9.762;2022-08-03T01:03:59;50.92;;;46.72;;
33254;SDS011;19623;52.482;9.762;2022-08-03T01:06:32;65.70;;;59.78;;
33254;SDS011;19623;52.482;9.762;2022-08-03T01:19:52;76.45;;;70.93;;
33254;SDS011;19623;52.482;9.762;2022-08-03T01:24:56;29.55;;;27.00;;
33254;SDS011;19623;52.482;9.762;2022-08-03T01:32:54;72.80;;;66.95;;
33254;SDS011;19623;52.482;9.762;2022-08-03T01:35:25;99.43;;;91.90;;
33254;SDS011;19623;52.482;9.762;2022-08-03T01:38:00;53.78;;;49.08;;
33254;SDS011;19623;52.482;9.762;2022-08-03T01:40:30;26.35;;;24.15;;
33254;SDS011;19623;52.482;9.762;2022-08-03T01:42:58;136.88;;;126.35;;
33254;SDS011;19623;52.482;9.762;2022-08-03T01:45:26;128.38;;;118.78;;
33254;SDS011;19623;52.482;9.762;2022-08-03T01:47:54;55.03;;;50.35;;
33254;SDS011;19623;52.482;9.762;2022-08-03T01:50:21;30.42;;;27.80;;
33254;SDS011;19623;52.482;9.762;2022-08-03T01:52:50;31.85;;;29.45;;
33254;SDS011;19623;52.482;9.762;2022-08-03T01:55:18;115.40;;;106.53;;
33254;SDS011;19623;52.482;9.762;2022-08-03T01:57:46;70.47;;;64.30;;
33254;SDS011;19623;52.482;9.762;2022-08-03T02:00:14;45.97;;;42.13;;
33254;SDS011;19623;52.482;9.762;2022-08-03T02:02:41;35.58;;;32.45;;
33254;SDS011;19623;52.482;9.762;2022-08-03T02:05:08;51.00;;;46.30;;
33254;SDS011;19623;52.482;9.762;2022-08-03T02:07:35;57.55;;;52.50;;
33254;SDS011;19623;52.482;9.762;2022-08-03T02:10:03;47.47;;;43.15;;
33254;SDS011;19623;52.482;9.762;2022-08-03T02:12:31;27.95;;;25.15;;
33254;SDS011;19623;52.482;9.762;2022-08-03T02:14:58;20.40;;;18.25;;
33254;SDS011;19623;52.482;9.762;2022-08-03T02:17:25;43.30;;;39.30;;
33254;SDS011;19623;52.482;9.762;2022-08-03T02:19:52;47.50;;;43.22;;
33254;SDS011;19623;52.482;9.762;2022-08-03T02:22:20;35.80;;;32.13;;
33254;SDS011;19623;52.482;9.762;2022-08-03T02:24:48;15.77;;;14.30;;
33254;SDS011;19623;52.482;9.762;2022-08-03T02:27:17;29.08;;;26.63;;
33254;SDS011;19623;52.482;9.762;2022-08-03T02:29:47;16.90;;;15.32;;
33254;SDS011;19623;52.482;9.762;2022-08-03T02:32:19;12.23;;;11.25;;
33254;SDS011;19623;52.482;9.762;2022-08-03T02:37:17;8.93;;;4.90;;
33254;SDS011;19623;52.482;9.762;2022-08-03T02:39:43;4.85;;;4.00;;
33254;SDS011;19623;52.482;9.762;2022-08-03T02:42:10;4.80;;;4.40;;
33254;SDS011;19623;52.482;9.762;2022-08-03T02:44:39;8.75;;;4.03;;
33254;SDS011;19623;52.482;9.762;2022-08-03T02:47:11;8.85;;;4.32;;
33254;SDS011;19623;52.482;9.762;2022-08-03T02:49:39;9.57;;;8.68;;
33254;SDS011;19623;52.482;9.762;2022-08-03T02:52:08;14.23;;;12.98;;
33254;SDS011;19623;52.482;9.762;2022-08-03T02:54:35;7.93;;;7.28;;
33254;SDS011;19623;52.482;9.762;2022-08-03T02:57:02;7.78;;;6.88;;
33254;SDS011;19623;52.482;9.762;2022-08-03T02:59:31;12.98;;;11.90;;
33254;SDS011;19623;52.482;9.762;2022-08-03T03:01:59;58.42;;;54.20;;
33254;SDS011;19623;52.482;9.762;2022-08-03T03:04:26;73.00;;;67.65;;
33254;SDS011;19623;52.482;9.762;2022-08-03T03:06:53;22.92;;;21.20;;
33254;SDS011;19623;52.482;9.762;2022-08-03T03:09:20;12.80;;;11.50;;
33254;SDS011;19623;52.482;9.762;2022-08-03T03:11:47;7.50;;;5.95;;
33254;SDS011;19623;52.482;9.762;2022-08-03T03:14:14;8.45;;;4.90;;
33254;SDS011;19623;52.482;9.762;2022-08-03T03:16:42;7.85;;;4.03;;
33254;SDS011;19623;52.482;9.762;2022-08-03T03:19:10;5.38;;;3.80;;
33254;SDS011;19623;52.482;9.762;2022-08-03T03:21:37;4.95;;;3.40;;
33254;SDS011;19623;52.482;9.762;2022-08-03T03:24:04;5.65;;;4.97;;
33254;SDS011;19623;52.482;9.762;2022-08-03T03:26:32;12.57;;;7.80;;
33254;SDS011;19623;52.482;9.762;2022-08-03T03:28:59;16.25;;;11.63;;
33254;SDS011;19623;52.482;9.762;2022-08-03T03:31:25;6.97;;;6.18;;
33254;SDS011;19623;52.482;9.762;2022-08-03T03:33:51;9.00;;;8.07;;
33254;SDS011;19623;52.482;9.762;2022-08-03T03:36:17;9.80;;;8.90;;
33254;SDS011;19623;52.482;9.762;2022-08-03T03:38:43;6.47;;;4.05;;
33254;SDS011;19623;52.482;9.762;2022-08-03T03:41:09;5.97;;;4.30;;
33254;SDS011;19623;52.482;9.762;2022-08-03T03:43:34;5.63;;;4.95;;
33254;SDS011;19623;52.482;9.762;2022-08-03T03:46:00;24.70;;;22.65;;
33254;SDS011;19623;52.482;9.762;2022-08-03T03:48:26;114.80;;;105.97;;
33254;SDS011;19623;52.482;9.762;2022-08-03T03:50:52;7.45;;;3.45;;
33254;SDS011;19623;52.482;9.762;2022-08-03T03:53:18;64.18;;;60.05;;
33254;SDS011;19623;52.482;9.762;2022-08-03T03:55:44;13.82;;;12.70;;
33254;SDS011;19623;52.482;9.762;2022-08-03T03:58:10;8.10;;;6.15;;
33254;SDS011;19623;52.482;9.762;2022-08-03T04:00:35;8.20;;;6.95;;
33254;SDS011;19623;52.482;9.762;2022-08-03T04:03:01;76.72;;;70.35;;
33254;SDS011;19623;52.482;9.762;2022-08-03T04:05:27;6.53;;;3.95;;
33254;SDS011;19623;52.482;9.762;2022-08-03T04:08:11;106.85;;;99.13;;
33254;SDS011;19623;52.482;9.762;2022-08-03T04:11:10;251.02;;;232.45;;
33254;SDS011;19623;52.482;9.762;2022-08-03T04:13:38;649.25;;;592.60;;
33254;SDS011;19623;52.482;9.762;2022-08-03T04:16:08;652.40;;;581.65;;
33254;SDS011;19623;52.482;9.762;2022-08-03T04:18:38;681.28;;;596.03;;
33254;SDS011;19623;52.482;9.762;2022-08-03T04:21:07;685.35;;;574.10;;
33254;SDS011;19623;52.482;9.762;2022-08-03T04:23:36;716.95;;;638.40;;
33254;SDS011;19623;52.482;9.762;2022-08-03T04:26:06;308.02;;;285.17;;
33254;SDS011;19623;52.482;9.762;2022-08-03T04:28:34;492.92;;;450.50;;
33254;SDS011;19623;52.482;9.762;2022-08-03T04:31:02;657.47;;;563.60;;
33254;SDS011;19623;52.482;9.762;2022-08-03T04:33:29;647.42;;;590.33;;
33254;SDS011;19623;52.482;9.762;2022-08-03T04:35:58;591.85;;;539.70;;
33254;SDS011;19623;52.482;9.762;2022-08-03T04:38:25;624.40;;;563.78;;
33254;SDS011;19623;52.482;9.762;2022-08-03T04:40:53;674.40;;;605.00;;
33254;SDS011;19623;52.482;9.762;2022-08-03T04:43:20;446.00;;;403.00;;
33254;SDS011;19623;52.482;9.762;2022-08-03T04:45:46;706.80;;;626.08;;
33254;SDS011;19623;52.482;9.762;2022-08-03T04:48:15;661.83;;;599.15;;
33254;SDS011;19623;52.482;9.762;2022-08-03T04:50:41;677.60;;;611.33;;
33254;SDS011;19623;52.482;9.762;2022-08-03T04:53:07;724.15;;;646.30;;
33254;SDS011;19623;52.482;9.762;2022-08-03T04:55:33;827.13;;;669.17;;
33254;SDS011;19623;52.482;9.762;2022-08-03T04:57:59;632.90;;;577.20;;
33254;SDS011;19623;52.482;9.762;2022-08-03T05:00:26;4.63;;;3.70;;
33254;SDS011;19623;52.482;9.762;2022-08-03T05:02:52;702.63;;;631.80;;
33254;SDS011;19623;52.482;9.762;2022-08-03T05:05:18;743.65;;;639.33;;
33254;SDS011;19623;52.482;9.762;2022-08-03T05:07:45;724.22;;;651.80;;
33254;SDS011;19623;52.482;9.762;2022-08-03T05:10:11;806.72;;;639.72;;
33254;SDS011;19623;52.482;9.762;2022-08-03T05:12:38;786.58;;;648.13;;
33254;SDS011;19623;52.482;9.762;2022-08-03T05:15:04;794.38;;;655.83;;
33254;SDS011;19623;52.482;9.762;2022-08-03T05:17:30;758.08;;;675.83;;
33254;SDS011;19623;52.482;9.762;2022-08-03T05:19:58;766.88;;;694.60;;
33254;SDS011;19623;52.482;9.762;2022-08-03T05:22:24;731.08;;;665.47;;
33254;SDS011;19623;52.482;9.762;2022-08-03T05:24:49;796.92;;;712.85;;
33254;SDS011;19623;52.482;9.762;2022-08-03T05:27:15;546.90;;;502.02;;
33254;SDS011;19623;52.482;9.762;2022-08-03T05:29:48;792.08;;;722.58;;
33254;SDS011;19623;52.482;9.762;2022-08-03T05:32:14;769.17;;;703.35;;
33254;SDS011;19623;52.482;9.762;2022-08-03T05:34:41;572.72;;;525.90;;
33254;SDS011;19623;52.482;9.762;2022-08-03T05:37:07;544.50;;;503.02;;
33254;SDS011;19623;52.482;9.762;2022-08-03T05:39:33;437.90;;;405.85;;
33254;SDS011;19623;52.482;9.762;2022-08-03T05:41:59;338.73;;;315.35;;
33254;SDS011;19623;52.482;9.762;2022-08-03T05:44:25;223.55;;;207.70;;
33254;SDS011;19623;52.482;9.762;2022-08-03T05:46:51;420.02;;;390.08;;
33254;SDS011;19623;52.482;9.762;2022-08-03T05:49:17;207.75;;;195.18;;
33254;SDS011;19623;52.482;9.762;2022-08-03T05:51:43;221.45;;;205.35;;
33254;SDS011;19623;52.482;9.762;2022-08-03T05:54:09;98.47;;;90.80;;
33254;SDS011;19623;52.482;9.762;2022-08-03T05:56:35;386.67;;;355.88;;
33254;SDS011;19623;52.482;9.762;2022-08-03T05:59:00;406.02;;;375.85;;
33254;SDS011;19623;52.482;9.762;2022-08-03T06:01:26;287.10;;;268.23;;
33254;SDS011;19623;52.482;9.762;2022-08-03T06:03:52;238.77;;;222.00;;
33254;SDS011;19623;52.482;9.762;2022-08-03T06:06:18;433.15;;;402.02;;
33254;SDS011;19623;52.482;9.762;2022-08-03T06:08:43;599.85;;;553.65;;
33254;SDS011;19623;52.482;9.762;2022-08-03T06:11:10;485.15;;;447.88;;
33254;SDS011;19623;52.482;9.762;2022-08-03T06:13:36;415.00;;;385.67;;
33254;SDS011;19623;52.482;9.762;2022-08-03T06:16:02;625.25;;;577.15;;
33254;SDS011;19623;52.482;9.762;2022-08-03T06:18:28;594.97;;;549.58;;
33254;SDS011;19623;52.482;9.762;2022-08-03T06:20:53;666.10;;;614.13;;
33254;SDS011;19623;52.482;9.762;2022-08-03T06:23:19;591.05;;;546.05;;
33254;SDS011;19623;52.482;9.762;2022-08-03T06:25:45;495.35;;;458.65;;
33254;SDS011;19623;52.482;9.762;2022-08-03T06:28:11;711.15;;;655.00;;
33254;SDS011;19623;52.482;9.762;2022-08-03T06:30:40;692.40;;;638.05;;
33254;SDS011;19623;52.482;9.762;2022-08-03T06:33:05;632.38;;;583.97;;
33254;SDS011;19623;52.482;9.762;2022-08-03T06:35:31;523.33;;;485.27;;
33254;SDS011;19623;52.482;9.762;2022-08-03T06:37:57;492.73;;;455.17;;
33254;SDS011;19623;52.482;9.762;2022-08-03T06:40:23;627.67;;;579.08;;
33254;SDS011;19623;52.482;9.762;2022-08-03T06:42:55;559.95;;;517.38;;
33254;SDS011;19623;52.482;9.762;2022-08-03T06:45:22;521.40;;;482.23;;
33254;SDS011;19623;52.482;9.762;2022-08-03T06:47:58;449.77;;;417.02;;
33254;SDS011;19623;52.482;9.762;2022-08-03T06:50:31;490.25;;;453.65;;
33254;SDS011;19623;52.482;9.762;2022-08-03T06:52:58;281.08;;;261.75;;
33254;SDS011;19623;52.482;9.762;2022-08-03T06:55:24;210.38;;;195.93;;
33254;SDS011;19623;52.482;9.762;2022-08-03T06:57:50;63.03;;;58.67;;
33254;SDS011;19623;52.482;9.762;2022-08-03T07:00:16;90.63;;;84.28;;
33254;SDS011;19623;52.482;9.762;2022-08-03T07:02:42;105.10;;;97.72;;
33254;SDS011;19623;52.482;9.762;2022-08-03T07:05:09;135.23;;;126.43;;
33254;SDS011;19623;52.482;9.762;2022-08-03T07:07:35;122.85;;;114.53;;
33254;SDS011;19623;52.482;9.762;2022-08-03T07:10:01;139.50;;;129.80;;
33254;SDS011;19623;52.482;9.762;2022-08-03T07:12:28;66.38;;;61.72;;
33254;SDS011;19623;52.482;9.762;2022-08-03T07:14:54;272.27;;;253.48;;
33254;SDS011;19623;52.482;9.762;2022-08-03T07:17:21;316.08;;;293.65;;
33254;SDS011;19623;52.482;9.762;2022-08-03T07:19:47;81.22;;;75.95;;
33254;SDS011;19623;52.482;9.762;2022-08-03T07:22:12;169.95;;;158.73;;
33254;SDS011;19623;52.482;9.762;2022-08-03T07:24:38;242.10;;;224.93;;
33254;SDS011;19623;52.482;9.762;2022-08-03T07:27:05;105.50;;;98.65;;
33254;SDS011;19623;52.482;9.762;2022-08-03T07:29:32;223.82;;;208.32;;
33254;SDS011;19623;52.482;9.762;2022-08-03T07:31:59;99.55;;;93.18;;
33254;SDS011;19623;52.482;9.762;2022-08-03T07:34:25;173.27;;;161.93;;
33254;SDS011;19623;52.482;9.762;2022-08-03T07:36:51;145.32;;;135.60;;
33254;SDS011;19623;52.482;9.762;2022-08-03T07:39:16;127.85;;;119.40;;
33254;SDS011;19623;52.482;9.762;2022-08-03T07:41:42;169.65;;;157.95;;
33254;SDS011;19623;52.482;9.762;2022-08-03T07:44:07;209.85;;;195.27;;
33254;SDS011;19623;52.482;9.762;2022-08-03T07:46:33;198.27;;;184.63;;
33254;SDS011;19623;52.482;9.762;2022-08-03T07:48:58;174.10;;;162.57;;
33254;SDS011;19623;52.482;9.762;2022-08-03T07:51:24;227.30;;;211.68;;
33254;SDS011;19623;52.482;9.762;2022-08-03T07:53:50;134.45;;;125.70;;
33254;SDS011;19623;52.482;9.762;2022-08-03T07:56:15;116.70;;;108.95;;
33254;SDS011;19623;52.482;9.762;2022-08-03T07:58:41;116.53;;;108.75;;
33254;SDS011;19623;52.482;9.762;2022-08-03T08:01:07;125.97;;;117.45;;
33254;SDS011;19623;52.482;9.762;2022-08-03T08:03:32;140.05;;;130.68;;
33254;SDS011;19623;52.482;9.762;2022-08-03T08:05:58;89.68;;;83.55;;
33254;SDS011;19623;52.482;9.762;2022-08-03T08:08:24;59.40;;;55.47;;
33254;SDS011;19623;52.482;9.762;2022-08-03T08:10:49;35.95;;;33.60;;
33254;SDS011;19623;52.482;9.762;2022-08-03T08:13:15;52.20;;;48.22;;
33254;SDS011;19623;52.482;9.762;2022-08-03T08:15:41;46.88;;;43.58;;
33254;SDS011;19623;52.482;9.762;2022-08-03T08:18:06;26.45;;;24.27;;
33254;SDS011;19623;52.482;9.762;2022-08-03T08:20:33;45.13;;;41.90;;
33254;SDS011;19623;52.482;9.762;2022-08-03T08:23:03;24.02;;;22.55;;
33254;SDS011;19623;52.482;9.762;2022-08-03T08:25:30;66.57;;;61.78;;
33254;SDS011;19623;52.482;9.762;2022-08-03T08:27:56;71.38;;;66.15;;
33254;SDS011;19623;52.482;9.762;2022-08-03T08:30:22;20.48;;;18.92;;
33254;SDS011;19623;52.482;9.762;2022-08-03T08:32:49;30.67;;;28.63;;
33254;SDS011;19623;52.482;9.762;2022-08-03T08:35:15;55.60;;;51.90;;
33254;SDS011;19623;52.482;9.762;2022-08-03T08:37:41;48.85;;;45.60;;
33254;SDS011;19623;52.482;9.762;2022-08-03T08:40:08;24.45;;;22.80;;
33254;SDS011;19623;52.482;9.762;2022-08-03T08:42:38;28.52;;;26.30;;
33254;SDS011;19623;52.482;9.762;2022-08-03T08:45:05;19.48;;;18.05;;
33254;SDS011;19623;52.482;9.762;2022-08-03T08:47:32;32.45;;;30.23;;
33254;SDS011;19623;52.482;9.762;2022-08-03T08:50:01;19.73;;;18.10;;
33254;SDS011;19623;52.482;9.762;2022-08-03T08:52:28;8.68;;;7.88;;
33254;SDS011;19623;52.482;9.762;2022-08-03T08:54:55;16.67;;;15.27;;
33254;SDS011;19623;52.482;9.762;2022-08-03T08:57:35;11.20;;;9.45;;
33254;SDS011;19623;52.482;9.762;2022-08-03T09:00:06;12.88;;;11.88;;
33254;SDS011;19623;52.482;9.762;2022-08-03T09:02:35;15.80;;;14.70;;
33254;SDS011;19623;52.482;9.762;2022-08-03T09:05:00;7.22;;;6.65;;
33254;SDS011;19623;52.482;9.762;2022-08-03T09:07:26;6.47;;;5.82;;
33254;SDS011;19623;52.482;9.762;2022-08-03T09:09:53;7.32;;;6.30;;
33254;SDS011;19623;52.482;9.762;2022-08-03T09:12:19;4.28;;;3.65;;
33254;SDS011;19623;52.482;9.762;2022-08-03T09:14:44;6.32;;;4.90;;
33254;SDS011;19623;52.482;9.762;2022-08-03T09:17:10;5.57;;;3.58;;
33254;SDS011;19623;52.482;9.762;2022-08-03T09:19:36;4.75;;;2.17;;
33254;SDS011;19623;52.482;9.762;2022-08-03T09:22:09;6.07;;;4.28;;
33254;SDS011;19623;52.482;9.762;2022-08-03T09:24:55;4.30;;;2.05;;
33254;SDS011;19623;52.482;9.762;2022-08-03T09:27:22;2.97;;;2.28;;
33254;SDS011;19623;52.482;9.762;2022-08-03T09:29:49;7.03;;;1.73;;
33254;SDS011;19623;52.482;9.762;2022-08-03T09:32:19;2.38;;;1.42;;
33254;SDS011;19623;52.482;9.762;2022-08-03T09:34:47;6.05;;;1.45;;
33254;SDS011;19623;52.482;9.762;2022-08-03T09:37:17;3.28;;;1.50;;
33254;SDS011;19623;52.482;9.762;2022-08-03T09:39:45;1.77;;;1.40;;
33254;SDS011;19623;52.482;9.762;2022-08-03T09:42:12;4.07;;;1.40;;
33254;SDS011;19623;52.482;9.762;2022-08-03T09:44:44;3.50;;;1.73;;
33254;SDS011;19623;52.482;9.762;2022-08-03T09:47:14;8.43;;;1.88;;
33254;SDS011;19623;52.482;9.762;2022-08-03T09:49:58;7.60;;;1.92;;
33254;SDS011;19623;52.482;9.762;2022-08-03T09:52:29;3.20;;;1.60;;
33254;SDS011;19623;52.482;9.762;2022-08-03T09:54:57;4.00;;;1.23;;
33254;SDS011;19623;52.482;9.762;2022-08-03T09:57:24;4.38;;;1.27;;
33254;SDS011;19623;52.482;9.762;2022-08-03T09:59:51;4.97;;;1.63;;
33254;SDS011;19623;52.482;9.762;2022-08-03T10:02:23;7.55;;;1.15;;
33254;SDS011;19623;52.482;9.762;2022-08-03T10:04:50;2.75;;;1.50;;
33254;SDS011;19623;52.482;9.762;2022-08-03T10:07:17;5.30;;;1.42;;
33254;SDS011;19623;52.482;9.762;2022-08-03T10:12:20;3.92;;;1.40;;
33254;SDS011;19623;52.482;9.762;2022-08-03T10:14:46;4.45;;;1.20;;
33254;SDS011;19623;52.482;9.762;2022-08-03T10:17:12;1.92;;;1.20;;
33254;SDS011;19623;52.482;9.762;2022-08-03T10:19:38;3.20;;;1.35;;
33254;SDS011;19623;52.482;9.762;2022-08-03T10:22:12;5.20;;;1.30;;
33254;SDS011;19623;52.482;9.762;2022-08-03T10:25:01;6.82;;;1.35;;
33254;SDS011;19623;52.482;9.762;2022-08-03T10:27:36;8.45;;;1.50;;
33254;SDS011;19623;52.482;9.762;2022-08-03T10:30:04;2.08;;;1.30;;
33254;SDS011;19623;52.482;9.762;2022-08-03T10:32:38;4.60;;;1.65;;
33254;SDS011;19623;52.482;9.762;2022-08-03T10:35:12;7.35;;;1.70;;
33254;SDS011;19623;52.482;9.762;2022-08-03T10:37:41;4.45;;;1.20;;
33254;SDS011;19623;52.482;9.762;2022-08-03T10:40:12;3.85;;;1.50;;
33254;SDS011;19623;52.482;9.762;2022-08-03T10:42:41;5.10;;;1.15;;
33254;SDS011;19623;52.482;9.762;2022-08-03T10:45:11;6.32;;;1.42;;
33254;SDS011;19623;52.482;9.762;2022-08-03T10:47:42;3.85;;;1.13;;
33254;SDS011;19623;52.482;9.762;2022-08-03T10:50:09;5.05;;;1.25;;
33254;SDS011;19623;52.482;9.762;2022-08-03T10:52:52;3.65;;;1.63;;
33254;SDS011;19623;52.482;9.762;2022-08-03T10:55:37;6.88;;;1.38;;
33254;SDS011;19623;52.482;9.762;2022-08-03T10:58:45;4.80;;;1.65;;
33254;SDS011;19623;52.482;9.762;2022-08-03T11:01:11;3.13;;;2.50;;
33254;SDS011;19623;52.482;9.762;2022-08-03T11:06:19;5.30;;;1.52;;
33254;SDS011;19623;52.482;9.762;2022-08-03T11:08:49;5.97;;;1.45;;
33254;SDS011;19623;52.482;9.762;2022-08-03T11:11:41;2.70;;;1.42;;
33254;SDS011;19623;52.482;9.762;2022-08-03T11:14:15;2.90;;;1.33;;
33254;SDS011;19623;52.482;9.762;2022-08-03T11:16:43;3.20;;;1.75;;
33254;SDS011;19623;52.482;9.762;2022-08-03T11:19:12;5.40;;;2.25;;
33254;SDS011;19623;52.482;9.762;2022-08-03T11:35:11;1.90;;;1.40;;
33254;SDS011;19623;52.482;9.762;2022-08-03T11:46:04;4.95;;;1.23;;
33254;SDS011;19623;52.482;9.762;2022-08-03T11:48:46;12.75;;;1.50;;
33254;SDS011;19623;52.482;9.762;2022-08-03T11:51:26;3.28;;;1.45;;
33254;SDS011;19623;52.482;9.762;2022-08-03T11:53:59;4.05;;;1.60;;
33254;SDS011;19623;52.482;9.762;2022-08-03T11:56:27;4.28;;;1.60;;
33254;SDS011;19623;52.482;9.762;2022-08-03T11:59:06;2.42;;;1.20;;
33254;SDS011;19623;52.482;9.762;2022-08-03T12:01:32;4.00;;;1.30;;
33254;SDS011;19623;52.482;9.762;2022-08-03T12:04:01;5.22;;;1.20;;
33254;SDS011;19623;52.482;9.762;2022-08-03T12:06:28;1.63;;;1.30;;
33254;SDS011;19623;52.482;9.762;2022-08-03T12:08:54;4.00;;;1.33;;
33254;SDS011;19623;52.482;9.762;2022-08-03T12:11:20;2.65;;;1.30;;
33254;SDS011;19623;52.482;9.762;2022-08-03T12:13:46;2.58;;;1.10;;
33254;SDS011;19623;52.482;9.762;2022-08-03T12:16:18;1.40;;;1.13;;
33254;SDS011;19623;52.482;9.762;2022-08-03T12:18:45;6.43;;;1.75;;
33254;SDS011;19623;52.482;9.762;2022-08-03T12:21:21;2.25;;;0.95;;
33254;SDS011;19623;52.482;9.762;2022-08-03T12:23:48;2.28;;;1.25;;
33254;SDS011;19623;52.482;9.762;2022-08-03T12:26:14;3.50;;;1.30;;
33254;SDS011;19623;52.482;9.762;2022-08-03T12:28:46;4.30;;;1.30;;
33254;SDS011;19623;52.482;9.762;2022-08-03T12:31:12;2.22;;;1.02;;
33254;SDS011;19623;52.482;9.762;2022-08-03T12:36:19;6.15;;;1.40;;
33254;SDS011;19623;52.482;9.762;2022-08-03T12:38:44;3.47;;;1.30;;
33254;SDS011;19623;52.482;9.762;2022-08-03T12:41:25;4.97;;;1.30;;
33254;SDS011;19623;52.482;9.762;2022-08-03T12:44:04;6.47;;;1.30;;
33254;SDS011;19623;52.482;9.762;2022-08-03T12:46:33;3.17;;;1.20;;
33254;SDS011;19623;52.482;9.762;2022-08-03T12:51:36;5.32;;;1.50;;
33254;SDS011;19623;52.482;9.762;2022-08-03T12:54:21;4.07;;;1.70;;
33254;SDS011;19623;52.482;9.762;2022-08-03T13:02:22;3.22;;;1.42;;
33254;SDS011;19623;52.482;9.762;2022-08-03T13:04:49;5.07;;;1.60;;
33254;SDS011;19623;52.482;9.762;2022-08-03T13:07:17;2.75;;;1.45;;
33254;SDS011;19623;52.482;9.762;2022-08-03T13:14:41;5.35;;;1.80;;
33254;SDS011;19623;52.482;9.762;2022-08-03T13:17:08;1.92;;;1.50;;
33254;SDS011;19623;52.482;9.762;2022-08-03T13:19:35;2.70;;;1.35;;
33254;SDS011;19623;52.482;9.762;2022-08-03T13:24:40;3.97;;;1.52;;
33254;SDS011;19623;52.482;9.762;2022-08-03T13:27:07;3.30;;;1.33;;
33254;SDS011;19623;52.482;9.762;2022-08-03T13:29:33;3.58;;;1.33;;
33254;SDS011;19623;52.482;9.762;2022-08-03T13:31:59;7.63;;;1.77;;
33254;SDS011;19623;52.482;9.762;2022-08-03T13:34:26;2.38;;;1.33;;
33254;SDS011;19623;52.482;9.762;2022-08-03T13:36:52;3.83;;;1.30;;
33254;SDS011;19623;52.482;9.762;2022-08-03T13:39:18;5.22;;;1.45;;
33254;SDS011;19623;52.482;9.762;2022-08-03T13:41:47;4.30;;;1.02;;
33254;SDS011;19623;52.482;9.762;2022-08-03T13:44:13;2.80;;;1.23;;
33254;SDS011;19623;52.482;9.762;2022-08-03T13:46:39;2.92;;;1.20;;
33254;SDS011;19623;52.482;9.762;2022-08-03T13:49:05;5.25;;;1.48;;
33254;SDS011;19623;52.482;9.762;2022-08-03T13:51:31;2.65;;;1.23;;
33254;SDS011;19623;52.482;9.762;2022-08-03T13:53:57;2.33;;;1.20;;
33254;SDS011;19623;52.482;9.762;2022-08-03T13:56:24;2.15;;;1.08;;
33254;SDS011;19623;52.482;9.762;2022-08-03T13:58:53;2.07;;;1.60;;
33254;SDS011;19623;52.482;9.762;2022-08-03T14:01:20;2.95;;;1.50;;
33254;SDS011;19623;52.482;9.762;2022-08-03T14:03:46;5.32;;;1.45;;
33254;SDS011;19623;52.482;9.762;2022-08-03T14:06:14;4.38;;;1.77;;
33254;SDS011;19623;52.482;9.762;2022-08-03T14:08:40;1.80;;;1.30;;
33254;SDS011;19623;52.482;9.762;2022-08-03T14:11:05;3.60;;;1.30;;
33254;SDS011;19623;52.482;9.762;2022-08-03T14:13:31;2.85;;;1.23;;
33254;SDS011;19623;52.482;9.762;2022-08-03T14:15:57;2.65;;;1.40;;
33254;SDS011;19623;52.482;9.762;2022-08-03T14:18:22;4.25;;;1.60;;
33254;SDS011;19623;52.482;9.762;2022-08-03T14:20:48;3.83;;;1.38;;
33254;SDS011;19623;52.482;9.762;2022-08-03T14:23:14;3.90;;;1.30;;
33254;SDS011;19623;52.482;9.762;2022-08-03T14:25:40;4.50;;;1.48;;
33254;SDS011;19623;52.482;9.762;2022-08-03T14:28:07;1.75;;;1.30;;
33254;SDS011;19623;52.482;9.762;2022-08-03T14:30:33;5.55;;;1.40;;
33254;SDS011;19623;52.482;9.762;2022-08-03T14:32:59;2.67;;;1.23;;
33254;SDS011;19623;52.482;9.762;2022-08-03T14:35:25;7.32;;;1.38;;
33254;SDS011;19623;52.482;9.762;2022-08-03T14:37:51;3.17;;;1.10;;
33254;SDS011;19623;52.482;9.762;2022-08-03T14:40:17;3.78;;;1.30;;
33254;SDS011;19623;52.482;9.762;2022-08-03T14:42:43;4.28;;;1.20;;
33254;SDS011;19623;52.482;9.762;2022-08-03T14:45:09;2.70;;;1.20;;
33254;SDS011;19623;52.482;9.762;2022-08-03T14:47:35;3.15;;;1.35;;
33254;SDS011;19623;52.482;9.762;2022-08-03T14:50:00;5.05;;;1.35;;
33254;SDS011;19623;52.482;9.762;2022-08-03T14:52:29;3.95;;;1.27;;
33254;SDS011;19623;52.482;9.762;2022-08-03T14:54:54;2.88;;;1.48;;
33254;SDS011;19623;52.482;9.762;2022-08-03T14:57:20;2.05;;;1.10;;
33254;SDS011;19623;52.482;9.762;2022-08-03T14:59:46;2.20;;;1.00;;
33254;SDS011;19623;52.482;9.762;2022-08-03T15:02:12;2.08;;;0.90;;
33254;SDS011;19623;52.482;9.762;2022-08-03T15:04:37;4.45;;;1.40;;
33254;SDS011;19623;52.482;9.762;2022-08-03T15:07:03;5.07;;;1.17;;
33254;SDS011;19623;52.482;9.762;2022-08-03T15:09:29;4.00;;;1.63;;
33254;SDS011;19623;52.482;9.762;2022-08-03T15:11:55;1.88;;;1.00;;
33254;SDS011;19623;52.482;9.762;2022-08-03T15:14:20;1.48;;;1.10;;
33254;SDS011;19623;52.482;9.762;2022-08-03T15:16:46;3.60;;;1.23;;
33254;SDS011;19623;52.482;9.762;2022-08-03T15:19:12;3.63;;;1.38;;
33254;SDS011;19623;52.482;9.762;2022-08-03T15:21:37;3.53;;;1.38;;
33254;SDS011;19623;52.482;9.762;2022-08-03T15:24:03;1.83;;;1.20;;
33254;SDS011;19623;52.482;9.762;2022-08-03T15:26:29;5.25;;;1.80;;
33254;SDS011;19623;52.482;9.762;2022-08-03T15:28:55;4.07;;;1.88;;
33254;SDS011;19623;52.482;9.762;2022-08-03T15:31:22;7.55;;;1.20;;
33254;SDS011;19623;52.482;9.762;2022-08-03T15:33:48;2.83;;;1.10;;
33254;SDS011;19623;52.482;9.762;2022-08-03T15:36:18;4.53;;;1.30;;